Time;durP1;ratioP1;P1;durP2;ratioP2;P2;SDS_P1;SDS_P2;PMS_P1;PMS_P2;Temp;Humidity;BMP_temperature;BMP_pressure;BME280_temperature;BME280_humidity;BME280_pressure;Samples;Min_cycle;Max_cycle;Signal;HPM_P1;HPM_P2
2021/09/12 00:00:42;;;;;;;32.92;19.33;;;;;;;;;;5023989;28;20210;-45
2021/09/12 00:03:09;;;;;;;23.20;14.45;;;;;;;;;;5023745;28;20017;-46
2021/09/12 00:05:35;;;;;;;26.55;12.55;;;;;;;;;;5022943;28;20030;-45
2021/09/12 00:08:01;;;;;;;21.25;11.40;;;;;;;;;;5023527;28;20124;-45
2021/09/12 00:10:27;;;;;;;17.85;9.00;;;;;;;;;;5023743;28;20414;-45
2021/09/12 00:12:53;;;;;;;17.08;7.40;;;;;;;;;;5023577;28;20033;-46
2021/09/12 00:15:20;;;;;;;18.10;7.88;;;;;;;;;;5023837;28;20373;-46
2021/09/12 00:17:46;;;;;;;15.90;6.68;;;;;;;;;;5023790;28;20030;-46
2021/09/12 00:20:12;;;;;;;17.80;7.15;;;;;;;;;;5023595;28;20064;-45
2021/09/12 00:22:38;;;;;;;17.27;7.78;;;;;;;;;;5068909;28;20051;-45
2021/09/12 00:25:05;;;;;;;17.65;7.80;;;;;;;;;;5075571;28;20024;-46
2021/09/12 00:27:31;;;;;;;14.88;8.27;;;;;;;;;;5075234;28;20036;-46
2021/09/12 00:29:58;;;;;;;18.92;7.15;;;;;;;;;;5075286;28;20032;-47
2021/09/12 00:32:24;;;;;;;13.85;7.60;;;;;;;;;;5075232;28;20031;-46
2021/09/12 00:34:50;;;;;;;18.05;7.18;;;;;;;;;;5075425;28;20036;-46
2021/09/12 00:37:16;;;;;;;11.77;6.80;;;;;;;;;;5075344;28;20514;-47
2021/09/12 00:39:43;;;;;;;14.55;6.70;;;;;;;;;;5075269;28;20032;-46
2021/09/12 00:42:09;;;;;;;17.38;6.57;;;;;;;;;;5075073;28;20025;-46
2021/09/12 00:44:35;;;;;;;19.00;6.03;;;;;;;;;;5075415;28;20095;-46
2021/09/12 00:47:07;;;;;;;15.05;5.57;;;;;;;;;;5074893;28;20052;-47
2021/09/12 00:49:33;;;;;;;14.07;5.85;;;;;;;;;;5075019;28;20036;-46
2021/09/12 00:52:01;;;;;;;13.48;5.57;;;;;;;;;;5074690;28;20025;-46
2021/09/12 00:54:28;;;;;;;14.68;5.60;;;;;;;;;;5075071;28;20053;-46
2021/09/12 00:56:55;;;;;;;15.98;5.80;;;;;;;;;;5074848;28;20031;-46
2021/09/12 00:59:22;;;;;;;13.63;5.60;;;;;;;;;;5074864;28;20021;-46
2021/09/12 01:01:48;;;;;;;17.77;5.90;;;;;;;;;;5074646;28;20482;-46
2021/09/12 01:04:14;;;;;;;17.48;5.50;;;;;;;;;;5074640;28;20048;-46
2021/09/12 01:06:40;;;;;;;10.38;5.10;;;;;;;;;;5074561;28;20082;-46
2021/09/12 01:09:07;;;;;;;12.50;5.43;;;;;;;;;;5074480;28;20024;-48
2021/09/12 01:11:33;;;;;;;19.15;5.90;;;;;;;;;;5074479;28;20067;-47
2021/09/12 01:13:59;;;;;;;9.13;5.10;;;;;;;;;;5074688;28;20100;-46
2021/09/12 01:16:25;;;;;;;11.93;5.68;;;;;;;;;;5074090;28;20021;-47
2021/09/12 01:18:51;;;;;;;10.45;5.55;;;;;;;;;;5074194;28;20025;-46
2021/09/12 01:21:19;;;;;;;11.63;5.30;;;;;;;;;;5074316;28;20040;-46
2021/09/12 01:23:46;;;;;;;16.60;6.10;;;;;;;;;;5073913;28;20128;-46
2021/09/12 01:26:12;;;;;;;13.30;6.03;;;;;;;;;;5074308;28;20020;-45
2021/09/12 01:28:41;;;;;;;12.35;6.28;;;;;;;;;;5074094;28;20392;-46
2021/09/12 01:31:08;;;;;;;12.00;5.72;;;;;;;;;;5074013;28;20016;-46
2021/09/12 01:33:34;;;;;;;16.50;6.47;;;;;;;;;;5074171;28;20024;-46
2021/09/12 01:36:00;;;;;;;10.93;5.20;;;;;;;;;;5074468;28;20538;-46
2021/09/12 01:38:26;;;;;;;14.70;5.95;;;;;;;;;;5073828;28;20473;-46
2021/09/12 01:40:52;;;;;;;11.63;6.18;;;;;;;;;;5073906;28;20071;-46
2021/09/12 01:43:21;;;;;;;17.25;6.18;;;;;;;;;;5073947;28;20031;-46
2021/09/12 01:45:47;;;;;;;18.90;6.63;;;;;;;;;;5073739;28;20031;-45
2021/09/12 01:48:13;;;;;;;16.50;6.13;;;;;;;;;;5073883;28;20024;-46
2021/09/12 01:50:39;;;;;;;15.85;6.50;;;;;;;;;;5073805;28;20052;-46
2021/09/12 01:53:05;;;;;;;9.35;5.80;;;;;;;;;;5073488;28;20157;-46
2021/09/12 01:55:31;;;;;;;13.27;5.05;;;;;;;;;;5073733;28;20078;-45
2021/09/12 01:58:00;;;;;;;18.98;4.88;;;;;;;;;;5073660;28;20468;-46
2021/09/12 02:00:26;;;;;;;12.73;4.63;;;;;;;;;;5073370;28;20480;-45
2021/09/12 02:02:52;;;;;;;10.63;4.70;;;;;;;;;;5073753;28;20075;-46
2021/09/12 02:05:18;;;;;;;11.02;5.10;;;;;;;;;;5073500;28;20074;-47
2021/09/12 02:07:44;;;;;;;9.60;4.80;;;;;;;;;;5073174;28;20060;-47
2021/09/12 02:10:10;;;;;;;14.75;5.20;;;;;;;;;;5073560;28;20040;-47
2021/09/12 02:12:36;;;;;;;9.30;4.85;;;;;;;;;;5073472;28;20024;-47
2021/09/12 02:15:02;;;;;;;12.07;5.30;;;;;;;;;;5073276;28;20025;-46
2021/09/12 02:17:28;;;;;;;10.43;4.97;;;;;;;;;;5073133;28;20024;-45
2021/09/12 02:19:56;;;;;;;11.52;4.85;;;;;;;;;;5073282;28;20035;-47
2021/09/12 02:22:22;;;;;;;10.98;5.05;;;;;;;;;;5072966;28;20051;-47
2021/09/12 02:24:48;;;;;;;11.55;5.68;;;;;;;;;;5073454;28;20594;-45
2021/09/12 02:27:14;;;;;;;21.45;9.07;;;;;;;;;;5072683;28;20051;-47
2021/09/12 02:29:42;;;;;;;20.80;8.75;;;;;;;;;;5073051;28;20036;-46
2021/09/12 02:32:08;;;;;;;19.55;9.40;;;;;;;;;;5073412;28;20031;-46
2021/09/12 02:34:34;;;;;;;22.48;8.57;;;;;;;;;;5073111;28;20532;-45
2021/09/12 02:37:00;;;;;;;15.30;8.73;;;;;;;;;;5073088;28;20063;-46
2021/09/12 02:39:26;;;;;;;27.85;12.40;;;;;;;;;;5073211;28;20024;-47
2021/09/12 02:41:53;;;;;;;20.30;11.48;;;;;;;;;;5072975;28;20033;-46
2021/09/12 02:44:19;;;;;;;21.25;10.55;;;;;;;;;;5073089;28;20048;-45
2021/09/12 02:46:45;;;;;;;15.23;9.70;;;;;;;;;;5072912;28;20369;-46
2021/09/12 02:49:13;;;;;;;19.70;10.10;;;;;;;;;;5072702;28;20060;-46
2021/09/12 02:51:39;;;;;;;17.85;9.38;;;;;;;;;;5073116;28;20021;-45
2021/09/12 02:54:05;;;;;;;20.30;9.82;;;;;;;;;;5072773;28;20559;-46
2021/09/12 02:56:33;;;;;;;16.38;10.18;;;;;;;;;;5073008;28;20034;-45
2021/09/12 02:59:00;;;;;;;20.42;8.77;;;;;;;;;;5072864;28;20058;-45
2021/09/12 03:01:26;;;;;;;18.88;8.88;;;;;;;;;;5072692;28;20107;-47
2021/09/12 03:03:52;;;;;;;19.30;9.60;;;;;;;;;;5073101;28;20465;-47
2021/09/12 03:06:18;;;;;;;18.77;10.77;;;;;;;;;;5072787;28;20024;-46
2021/09/12 03:08:44;;;;;;;20.73;11.18;;;;;;;;;;5072631;28;20044;-45
2021/09/12 03:11:10;;;;;;;27.92;14.73;;;;;;;;;;5072858;28;20059;-46
2021/09/12 03:13:36;;;;;;;22.40;13.40;;;;;;;;;;5072708;28;20468;-45
2021/09/12 03:16:02;;;;;;;23.92;13.30;;;;;;;;;;5072636;28;20025;-46
2021/09/12 03:18:28;;;;;;;22.60;11.90;;;;;;;;;;5072789;28;20488;-46
2021/09/12 03:20:55;;;;;;;18.20;10.30;;;;;;;;;;5072856;28;20152;-46
2021/09/12 03:23:21;;;;;;;19.52;10.38;;;;;;;;;;5072386;28;20051;-45
2021/09/12 03:25:47;;;;;;;20.13;10.30;;;;;;;;;;5072685;28;20365;-46
2021/09/12 03:28:13;;;;;;;19.85;10.82;;;;;;;;;;5072628;28;20062;-46
2021/09/12 03:30:39;;;;;;;21.30;9.75;;;;;;;;;;5072604;28;20031;-46
2021/09/12 03:33:05;;;;;;;22.05;9.52;;;;;;;;;;5073225;28;20040;-45
2021/09/12 03:35:33;;;;;;;18.13;8.57;;;;;;;;;;5072716;28;20027;-46
2021/09/12 03:38:02;;;;;;;18.52;8.23;;;;;;;;;;5073081;28;20017;-45
2021/09/12 03:40:28;;;;;;;15.95;8.13;;;;;;;;;;5076888;28;20032;-46
2021/09/12 03:42:54;;;;;;;26.08;9.90;;;;;;;;;;5076215;28;20029;-45
2021/09/12 03:45:20;;;;;;;19.13;7.70;;;;;;;;;;5076093;28;20051;-46
2021/09/12 03:47:46;;;;;;;16.38;9.43;;;;;;;;;;5076268;28;20078;-45
2021/09/12 03:50:12;;;;;;;19.75;9.07;;;;;;;;;;5076174;28;20028;-46
2021/09/12 03:52:41;;;;;;;18.73;9.70;;;;;;;;;;5075676;28;20025;-46
2021/09/12 03:55:08;;;;;;;15.48;9.15;;;;;;;;;;5076030;28;20028;-46
2021/09/12 03:57:34;;;;;;;22.83;8.27;;;;;;;;;;5075911;28;20132;-45
2021/09/12 04:00:00;;;;;;;20.83;10.32;;;;;;;;;;5075879;28;20020;-45
2021/09/12 04:02:26;;;;;;;23.83;11.43;;;;;;;;;;5075798;28;20056;-45
2021/09/12 04:04:52;;;;;;;17.42;8.10;;;;;;;;;;5075778;28;20017;-46
2021/09/12 04:07:18;;;;;;;16.42;8.32;;;;;;;;;;5075774;28;20031;-46
2021/09/12 04:09:44;;;;;;;17.23;6.60;;;;;;;;;;5075578;28;20067;-46
2021/09/12 04:12:10;;;;;;;13.75;6.72;;;;;;;;;;5075744;28;20025;-45
2021/09/12 04:14:36;;;;;;;26.33;6.30;;;;;;;;;;5075650;28;20093;-46
2021/09/12 04:17:02;;;;;;;21.27;7.15;;;;;;;;;;5075439;28;20024;-46
2021/09/12 04:19:29;;;;;;;13.10;6.47;;;;;;;;;;5075451;28;20025;-46
2021/09/12 04:21:55;;;;;;;11.13;6.03;;;;;;;;;;5075239;28;20531;-45
2021/09/12 04:24:21;;;;;;;11.00;5.80;;;;;;;;;;5075448;28;20033;-46
2021/09/12 04:26:47;;;;;;;13.48;6.10;;;;;;;;;;5075451;28;20103;-45
2021/09/12 04:29:13;;;;;;;16.70;6.25;;;;;;;;;;5075382;28;20064;-46
2021/09/12 04:31:39;;;;;;;11.73;5.90;;;;;;;;;;5075255;28;20055;-46
2021/09/12 04:34:05;;;;;;;15.23;6.32;;;;;;;;;;5075373;28;20030;-46
2021/09/12 04:36:31;;;;;;;18.48;6.03;;;;;;;;;;5075426;28;20413;-46
2021/09/12 04:38:57;;;;;;;12.65;5.80;;;;;;;;;;5075105;28;20089;-47
2021/09/12 04:41:26;;;;;;;14.68;5.95;;;;;;;;;;5075234;28;20104;-47
2021/09/12 04:43:52;;;;;;;9.27;5.70;;;;;;;;;;5075065;28;20100;-45
2021/09/12 04:46:18;;;;;;;16.85;6.82;;;;;;;;;;5075022;28;20021;-50
2021/09/12 04:48:44;;;;;;;16.05;7.45;;;;;;;;;;5074849;28;20111;-44
2021/09/12 04:51:10;;;;;;;12.60;5.90;;;;;;;;;;5074399;28;20025;-46
2021/09/12 04:53:36;;;;;;;10.82;6.55;;;;;;;;;;5074924;28;20028;-45
2021/09/12 04:56:02;;;;;;;10.73;6.18;;;;;;;;;;5074970;28;20435;-47
2021/09/12 04:58:28;;;;;;;10.00;5.60;;;;;;;;;;5074751;28;20082;-47
2021/09/12 05:00:57;;;;;;;12.98;5.95;;;;;;;;;;5074827;28;20028;-46
2021/09/12 05:03:23;;;;;;;11.95;5.70;;;;;;;;;;5074936;28;20040;-46
2021/09/12 05:05:49;;;;;;;12.63;5.68;;;;;;;;;;5074819;28;20395;-46
2021/09/12 05:08:18;;;;;;;14.30;5.60;;;;;;;;;;5074651;28;20031;-46
2021/09/12 05:10:44;;;;;;;18.10;5.80;;;;;;;;;;5075087;28;20149;-46
2021/09/12 05:13:10;;;;;;;15.15;5.85;;;;;;;;;;5074639;28;20381;-47
2021/09/12 05:15:36;;;;;;;14.70;5.38;;;;;;;;;;5074418;28;20028;-46
2021/09/12 05:18:02;;;;;;;11.20;5.13;;;;;;;;;;5074260;28;20017;-46
2021/09/12 05:20:28;;;;;;;14.77;5.70;;;;;;;;;;5074327;28;20055;-46
2021/09/12 05:22:54;;;;;;;13.05;5.60;;;;;;;;;;5073962;28;20041;-46
2021/09/12 05:25:20;;;;;;;13.30;5.63;;;;;;;;;;5074146;28;20094;-46
2021/09/12 05:27:46;;;;;;;7.63;5.43;;;;;;;;;;5074074;28;20016;-44
2021/09/12 05:30:12;;;;;;;13.15;4.97;;;;;;;;;;5074279;28;20384;-46
2021/09/12 05:32:45;;;;;;;15.90;4.70;;;;;;;;;;5074020;28;20020;-44
2021/09/12 05:35:11;;;;;;;15.15;5.47;;;;;;;;;;5074015;28;20037;-44
2021/09/12 05:37:38;;;;;;;9.90;5.43;;;;;;;;;;5073850;28;20487;-44
2021/09/12 05:40:04;;;;;;;12.27;6.30;;;;;;;;;;5074303;28;20035;-44
2021/09/12 05:42:30;;;;;;;6.93;4.75;;;;;;;;;;5074355;28;20081;-44
2021/09/12 05:44:56;;;;;;;12.10;5.43;;;;;;;;;;5074028;28;20024;-46
2021/09/12 05:47:22;;;;;;;15.60;6.88;;;;;;;;;;5073939;28;20048;-44
2021/09/12 05:49:48;;;;;;;17.88;7.75;;;;;;;;;;5074020;28;20534;-44
2021/09/12 05:52:14;;;;;;;19.80;7.88;;;;;;;;;;5073947;28;20032;-44
2021/09/12 05:54:40;;;;;;;15.98;6.00;;;;;;;;;;5074020;28;20089;-43
2021/09/12 05:57:07;;;;;;;14.38;6.63;;;;;;;;;;5073951;28;20024;-44
2021/09/12 05:59:33;;;;;;;12.75;5.50;;;;;;;;;;5073889;28;20075;-44
2021/09/12 06:01:59;;;;;;;11.35;5.85;;;;;;;;;;5072815;28;20499;-45
2021/09/12 06:04:25;;;;;;;16.13;5.75;;;;;;;;;;5073711;28;20071;-44
2021/09/12 06:06:51;;;;;;;16.13;6.28;;;;;;;;;;5073969;28;20017;-44
2021/09/12 06:09:17;;;;;;;10.63;5.68;;;;;;;;;;5073600;28;20423;-44
2021/09/12 06:11:43;;;;;;;13.20;5.35;;;;;;;;;;5073725;28;20025;-45
2021/09/12 06:14:09;;;;;;;14.27;4.80;;;;;;;;;;5073652;28;20082;-45
2021/09/12 06:16:35;;;;;;;9.75;5.05;;;;;;;;;;5073228;28;20027;-45
2021/09/12 06:19:01;;;;;;;13.45;5.28;;;;;;;;;;5073258;28;20115;-45
2021/09/12 06:21:27;;;;;;;12.82;5.25;;;;;;;;;;5073332;28;20099;-44
2021/09/12 06:23:54;;;;;;;10.68;5.20;;;;;;;;;;5072922;28;20053;-44
2021/09/12 06:26:20;;;;;;;17.83;5.30;;;;;;;;;;5073178;28;20021;-46
2021/09/12 06:28:46;;;;;;;17.75;6.40;;;;;;;;;;5056928;28;20047;-45
2021/09/12 06:31:12;;;;;;;11.82;5.72;;;;;;;;;;5052699;28;20013;-45
2021/09/12 06:33:39;;;;;;;15.02;8.65;;;;;;;;;;5052516;28;20070;-45
2021/09/12 06:36:05;;;;;;;31.08;15.93;;;;;;;;;;5052436;28;20033;-47
2021/09/12 06:38:31;;;;;;;121.20;59.78;;;;;;;;;;5052491;28;20062;-46
2021/09/12 06:40:58;;;;;;;140.48;77.32;;;;;;;;;;5052871;28;20021;-46
2021/09/12 06:43:24;;;;;;;100.68;54.35;;;;;;;;;;5052760;28;20024;-44
2021/09/12 06:45:50;;;;;;;99.10;52.25;;;;;;;;;;5052761;28;20017;-45
2021/09/12 06:48:16;;;;;;;97.18;54.05;;;;;;;;;;5052977;28;20033;-44
2021/09/12 06:50:42;;;;;;;71.45;36.40;;;;;;;;;;5052772;28;20025;-44
2021/09/12 06:53:08;;;;;;;104.30;64.93;;;;;;;;;;5052569;28;20063;-48
2021/09/12 06:55:34;;;;;;;109.63;55.35;;;;;;;;;;5052618;28;20036;-46
2021/09/12 06:58:00;;;;;;;99.72;53.60;;;;;;;;;;5051395;28;20044;-46
2021/09/12 07:00:26;;;;;;;99.60;59.25;;;;;;;;;;5052489;28;20107;-45
2021/09/12 07:02:52;;;;;;;162.23;53.90;;;;;;;;;;5052545;28;20447;-45
2021/09/12 07:05:18;;;;;;;144.65;90.88;;;;;;;;;;5052189;28;20021;-45
2021/09/12 07:07:44;;;;;;;578.40;421.02;;;;;;;;;;5052534;28;20481;-43
2021/09/12 07:10:11;;;;;;;265.33;197.82;;;;;;;;;;5052309;28;20065;-41
2021/09/12 07:12:37;;;;;;;104.47;67.15;;;;;;;;;;5049906;28;20017;-42
2021/09/12 07:15:03;;;;;;;55.15;33.85;;;;;;;;;;5056415;28;20112;-43
2021/09/12 07:17:29;;;;;;;46.38;24.48;;;;;;;;;;5056441;28;20373;-45
2021/09/12 07:19:55;;;;;;;32.05;17.63;;;;;;;;;;5056192;28;20384;-43
2021/09/12 07:22:21;;;;;;;114.07;72.80;;;;;;;;;;5056053;28;20111;-48
2021/09/12 07:24:47;;;;;;;102.03;65.07;;;;;;;;;;5056230;28;20029;-43
2021/09/12 07:27:14;;;;;;;97.40;50.08;;;;;;;;;;5056411;28;20024;-42
2021/09/12 07:29:40;;;;;;;31.60;18.45;;;;;;;;;;5056177;28;20064;-42
2021/09/12 07:32:06;;;;;;;73.57;46.65;;;;;;;;;;5055982;28;20068;-42
2021/09/12 07:34:32;;;;;;;47.30;18.40;;;;;;;;;;5056620;28;20021;-44
2021/09/12 07:36:58;;;;;;;51.83;18.45;;;;;;;;;;5056543;28;20465;-44
2021/09/12 07:39:24;;;;;;;95.15;39.05;;;;;;;;;;5056694;28;20056;-43
2021/09/12 07:41:53;;;;;;;89.65;34.42;;;;;;;;;;5056762;28;20029;-44
2021/09/12 07:44:19;;;;;;;106.47;44.85;;;;;;;;;;5055837;28;20059;-45
2021/09/12 07:46:45;;;;;;;41.25;20.20;;;;;;;;;;5056243;28;20526;-43
2021/09/12 07:49:11;;;;;;;14.20;6.40;;;;;;;;;;5056197;28;20388;-44
2021/09/12 07:51:37;;;;;;;37.92;17.80;;;;;;;;;;5056445;28;20025;-44
2021/09/12 07:54:03;;;;;;;40.28;20.08;;;;;;;;;;5056516;28;20104;-44
2021/09/12 07:56:29;;;;;;;12.68;6.03;;;;;;;;;;5056209;28;20021;-44
2021/09/12 07:58:55;;;;;;;14.15;5.05;;;;;;;;;;5056155;28;20033;-44
2021/09/12 08:01:21;;;;;;;22.63;11.35;;;;;;;;;;5056130;28;20021;-45
2021/09/12 08:03:47;;;;;;;15.48;6.05;;;;;;;;;;5056103;28;20432;-45
2021/09/12 08:06:18;;;;;;;11.05;5.22;;;;;;;;;;5056055;28;20021;-45
2021/09/12 08:08:44;;;;;;;12.43;4.80;;;;;;;;;;5055907;28;20036;-45
2021/09/12 08:11:10;;;;;;;13.25;5.65;;;;;;;;;;5056009;28;20029;-45
2021/09/12 08:13:36;;;;;;;14.82;6.30;;;;;;;;;;5056120;28;20032;-49
2021/09/12 08:16:02;;;;;;;16.20;4.72;;;;;;;;;;5055928;28;20036;-45
2021/09/12 08:18:28;;;;;;;8.52;4.38;;;;;;;;;;5055698;28;20044;-45
2021/09/12 08:20:54;;;;;;;18.00;4.72;;;;;;;;;;5055720;28;20108;-45
2021/09/12 08:23:20;;;;;;;14.77;5.10;;;;;;;;;;5055252;28;20033;-45
2021/09/12 08:25:46;;;;;;;11.95;4.65;;;;;;;;;;5054651;28;20086;-47
2021/09/12 08:28:12;;;;;;;9.25;4.18;;;;;;;;;;5055482;28;20044;-45
2021/09/12 08:30:38;;;;;;;69.95;7.03;;;;;;;;;;5055642;28;20036;-46
2021/09/12 08:33:11;;;;;;;11.68;4.07;;;;;;;;;;5055756;28;20021;-45
2021/09/12 08:35:37;;;;;;;9.27;4.68;;;;;;;;;;5055360;28;20025;-44
2021/09/12 08:38:03;;;;;;;13.50;4.00;;;;;;;;;;5055559;28;20025;-44
2021/09/12 08:40:30;;;;;;;6.55;4.28;;;;;;;;;;5055397;28;20104;-45
2021/09/12 08:42:58;;;;;;;12.63;3.95;;;;;;;;;;5055608;28;20491;-45
2021/09/12 08:45:24;;;;;;;12.50;4.13;;;;;;;;;;5055263;28;20457;-43
2021/09/12 08:47:51;;;;;;;8.38;3.35;;;;;;;;;;5055176;28;20024;-44
2021/09/12 08:50:17;;;;;;;8.60;3.40;;;;;;;;;;5054976;28;20550;-43
2021/09/12 08:52:46;;;;;;;7.82;3.60;;;;;;;;;;5055024;28;20103;-44
2021/09/12 08:55:13;;;;;;;6.85;3.90;;;;;;;;;;5055073;28;20112;-44
2021/09/12 08:57:49;;;;;;;13.60;4.07;;;;;;;;;;5054960;28;20112;-44
2021/09/12 09:00:17;;;;;;;12.63;6.40;;;;;;;;;;5054952;28;20036;-44
2021/09/12 09:02:43;;;;;;;5.45;4.30;;;;;;;;;;5054854;28;20459;-44
2021/09/12 09:05:09;;;;;;;5.38;3.35;;;;;;;;;;5054790;28;20021;-43
2021/09/12 09:07:35;;;;;;;4.90;3.30;;;;;;;;;;5054908;28;20092;-43
2021/09/12 09:10:05;;;;;;;10.23;3.40;;;;;;;;;;5054726;28;20049;-44
2021/09/12 09:12:36;;;;;;;9.10;3.15;;;;;;;;;;5054772;28;20508;-44
2021/09/12 09:15:02;;;;;;;5.35;2.72;;;;;;;;;;5054675;28;20044;-44
2021/09/12 09:17:28;;;;;;;4.35;2.97;;;;;;;;;;5054552;28;20100;-43
2021/09/12 09:19:55;;;;;;;6.63;3.05;;;;;;;;;;5054507;28;20028;-44
2021/09/12 09:22:31;;;;;;;9.85;2.95;;;;;;;;;;5054475;28;20045;-44
2021/09/12 09:24:58;;;;;;;11.35;3.25;;;;;;;;;;5054427;28;20380;-44
2021/09/12 09:27:24;;;;;;;7.05;3.35;;;;;;;;;;5054958;28;20057;-44
2021/09/12 09:29:55;;;;;;;8.40;3.92;;;;;;;;;;5054221;28;20068;-46
2021/09/12 09:32:21;;;;;;;5.15;2.67;;;;;;;;;;5054498;28;20350;-44
2021/09/12 09:34:47;;;;;;;8.35;3.40;;;;;;;;;;5054395;28;20029;-44
2021/09/12 09:37:13;;;;;;;11.32;3.28;;;;;;;;;;5054073;28;20028;-44
2021/09/12 09:39:42;;;;;;;8.98;3.70;;;;;;;;;;5054616;28;20032;-45
2021/09/12 09:42:28;;;;;;;7.00;3.28;;;;;;;;;;5054951;28;20072;-46
2021/09/12 09:44:58;;;;;;;36.45;3.53;;;;;;;;;;5050282;28;20064;-43
2021/09/12 09:47:28;;;;;;;7.00;3.50;;;;;;;;;;5054318;28;20025;-44
2021/09/12 09:50:03;;;;;;;8.30;3.22;;;;;;;;;;5053977;28;20056;-44
2021/09/12 09:52:30;;;;;;;4.30;3.05;;;;;;;;;;5054280;28;20025;-44
2021/09/12 09:54:56;;;;;;;7.57;3.28;;;;;;;;;;5053993;28;20413;-44
2021/09/12 09:57:23;;;;;;;13.73;3.10;;;;;;;;;;5054143;28;20150;-49
2021/09/12 09:59:49;;;;;;;6.85;3.25;;;;;;;;;;5053984;28;20426;-43
2021/09/12 10:02:15;;;;;;;8.02;3.33;;;;;;;;;;5053949;28;20035;-48
2021/09/12 10:04:42;;;;;;;15.00;3.50;;;;;;;;;;5054019;28;20021;-45
2021/09/12 10:07:09;;;;;;;6.25;3.53;;;;;;;;;;5053906;28;20075;-47
2021/09/12 10:09:36;;;;;;;9.80;3.75;;;;;;;;;;5053631;28;20041;-44
2021/09/12 10:12:08;;;;;;;6.85;3.80;;;;;;;;;;5053667;28;20021;-44
2021/09/12 10:14:45;;;;;;;11.48;3.67;;;;;;;;;;5053578;28;20029;-44
2021/09/12 10:17:15;;;;;;;9.43;3.03;;;;;;;;;;5053647;28;20037;-45
2021/09/12 10:19:43;;;;;;;5.75;3.17;;;;;;;;;;5053788;28;20477;-45
2021/09/12 10:22:10;;;;;;;4.90;3.05;;;;;;;;;;5053420;28;20047;-45
2021/09/12 10:24:56;;;;;;;9.32;3.70;;;;;;;;;;5053504;28;20113;-44
2021/09/12 10:27:35;;;;;;;7.20;3.00;;;;;;;;;;5052134;28;20017;-45
2021/09/12 10:30:40;;;;;;;4.40;3.20;;;;;;;;;;5053496;28;20121;-44
2021/09/12 10:33:06;;;;;;;9.10;4.28;;;;;;;;;;5031243;28;20030;-44
2021/09/12 10:35:37;;;;;;;4.97;3.50;;;;;;;;;;5031958;28;20026;-44
2021/09/12 10:38:03;;;;;;;6.70;3.58;;;;;;;;;;5031317;28;20030;-49
2021/09/12 10:40:47;;;;;;;6.35;3.80;;;;;;;;;;5031261;28;20060;-45
2021/09/12 10:43:25;;;;;;;7.43;3.03;;;;;;;;;;5031388;28;20121;-45
2021/09/12 10:46:07;;;;;;;7.68;3.17;;;;;;;;;;5031187;28;20030;-45
2021/09/12 10:48:36;;;;;;;6.60;3.22;;;;;;;;;;5030619;28;20036;-44
2021/09/12 10:51:22;;;;;;;10.95;2.92;;;;;;;;;;5031289;28;20513;-45
2021/09/12 10:54:00;;;;;;;10.48;3.30;;;;;;;;;;5018216;28;20088;-45
2021/09/12 10:56:26;;;;;;;5.55;3.13;;;;;;;;;;5031050;28;20030;-48
2021/09/12 10:58:53;;;;;;;8.82;2.80;;;;;;;;;;5031280;28;20033;-46
2021/09/12 11:01:28;;;;;;;3.90;3.20;;;;;;;;;;5031030;28;20035;-43
2021/09/12 11:03:59;;;;;;;6.25;2.70;;;;;;;;;;5042634;28;20033;-44
2021/09/12 11:06:25;;;;;;;9.63;3.88;;;;;;;;;;5053305;28;20025;-45
2021/09/12 11:08:51;;;;;;;5.13;3.50;;;;;;;;;;5053230;28;20484;-44
2021/09/12 11:11:18;;;;;;;10.20;3.20;;;;;;;;;;5052954;28;20067;-47
2021/09/12 11:13:44;;;;;;;6.43;3.00;;;;;;;;;;5053092;28;20025;-47
2021/09/12 11:16:11;;;;;;;7.75;3.10;;;;;;;;;;5053148;28;20051;-45
2021/09/12 11:18:45;;;;;;;6.38;3.17;;;;;;;;;;5052870;28;20029;-44
2021/09/12 11:21:12;;;;;;;7.88;3.03;;;;;;;;;;5053211;28;20021;-46
2021/09/12 11:23:40;;;;;;;8.13;3.38;;;;;;;;;;5052684;28;20048;-44
2021/09/12 11:26:06;;;;;;;5.38;3.33;;;;;;;;;;5052802;28;20029;-44
2021/09/12 11:28:36;;;;;;;4.03;2.80;;;;;;;;;;5052979;28;20025;-47
2021/09/12 11:31:02;;;;;;;5.90;2.95;;;;;;;;;;5052899;28;20128;-44
2021/09/12 11:33:48;;;;;;;9.60;6.55;;;;;;;;;;5052976;28;20021;-48
2021/09/12 11:36:14;;;;;;;7.97;3.47;;;;;;;;;;5052687;28;20432;-45
2021/09/12 11:38:40;;;;;;;7.82;3.22;;;;;;;;;;5053068;28;20028;-44
2021/09/12 11:41:06;;;;;;;6.40;2.88;;;;;;;;;;5052731;28;20029;-45
2021/09/12 11:43:33;;;;;;;4.43;2.92;;;;;;;;;;5052816;28;20031;-46
2021/09/12 11:46:11;;;;;;;5.88;2.47;;;;;;;;;;5052693;28;20025;-44
2021/09/12 11:48:40;;;;;;;3.90;2.75;;;;;;;;;;5052493;28;20064;-45
2021/09/12 11:51:06;;;;;;;6.60;2.67;;;;;;;;;;5053142;28;20112;-45
2021/09/12 11:53:35;;;;;;;6.93;2.80;;;;;;;;;;5052681;28;20021;-44
2021/09/12 11:56:10;;;;;;;5.07;2.72;;;;;;;;;;5052481;28;20029;-45
2021/09/12 11:58:39;;;;;;;7.95;3.10;;;;;;;;;;5052654;28;20029;-46
2021/09/12 12:01:06;;;;;;;7.40;2.35;;;;;;;;;;5054757;28;20021;-44
2021/09/12 12:03:32;;;;;;;5.68;2.85;;;;;;;;;;5056134;28;20461;-45
2021/09/12 12:05:59;;;;;;;3.78;2.72;;;;;;;;;;5056186;28;20104;-43
2021/09/12 12:08:25;;;;;;;7.05;3.15;;;;;;;;;;5056197;28;20017;-44
2021/09/12 12:10:51;;;;;;;4.40;2.72;;;;;;;;;;5056004;28;20035;-44
2021/09/12 12:13:28;;;;;;;6.95;2.80;;;;;;;;;;5055883;28;20014;-44
2021/09/12 12:15:58;;;;;;;4.53;2.33;;;;;;;;;;5055868;28;20537;-45
2021/09/12 12:18:24;;;;;;;;;;;;;;;;;;5056583;28;20306;-44
2021/09/12 12:20:51;;;;;;;6.10;2.90;;;;;;;;;;5055989;28;19912;-44
2021/09/12 12:23:22;;;;;;;5.03;2.55;;;;;;;;;;5055657;28;20476;-43
2021/09/12 12:25:49;;;;;;;7.22;3.38;;;;;;;;;;5055941;28;20021;-45
2021/09/12 12:28:15;;;;;;;6.60;2.90;;;;;;;;;;5055738;28;20036;-45
2021/09/12 12:30:42;;;;;;;5.57;2.67;;;;;;;;;;5055580;28;20029;-45
2021/09/12 12:33:08;;;;;;;6.88;3.08;;;;;;;;;;5055538;28;20029;-45
2021/09/12 12:35:34;;;;;;;5.30;3.17;;;;;;;;;;5055799;28;20037;-46
2021/09/12 12:38:00;;;;;;;4.07;2.92;;;;;;;;;;5055541;28;20028;-44
2021/09/12 12:40:26;;;;;;;7.75;2.67;;;;;;;;;;5055629;28;20033;-45
2021/09/12 12:43:01;;;;;;;7.75;2.63;;;;;;;;;;5055705;28;20021;-43
2021/09/12 12:45:36;;;;;;;4.57;2.63;;;;;;;;;;5055804;28;20098;-45
2021/09/12 12:48:08;;;;;;;3.33;2.50;;;;;;;;;;5055440;28;20474;-45
2021/09/12 12:50:38;;;;;;;5.97;3.15;;;;;;;;;;5055350;28;20041;-43
2021/09/12 12:53:14;;;;;;;5.13;2.75;;;;;;;;;;5055545;28;20050;-45
2021/09/12 12:55:43;;;;;;;5.38;2.50;;;;;;;;;;5055686;28;20504;-44
2021/09/12 12:58:15;;;;;;;5.93;2.55;;;;;;;;;;5055057;28;20440;-44
2021/09/12 13:00:42;;;;;;;4.90;2.30;;;;;;;;;;5055219;28;20096;-45
2021/09/12 13:03:08;;;;;;;3.15;2.58;;;;;;;;;;5055394;28;20029;-43
2021/09/12 13:05:34;;;;;;;6.93;2.63;;;;;;;;;;5055051;28;20013;-44
2021/09/12 13:08:01;;;;;;;4.45;2.42;;;;;;;;;;5055176;28;20027;-44
2021/09/12 13:10:27;;;;;;;7.30;2.58;;;;;;;;;;5055022;28;20116;-43
2021/09/12 13:12:54;;;;;;;5.28;2.28;;;;;;;;;;5054522;28;20021;-44
2021/09/12 13:15:20;;;;;;;5.47;2.35;;;;;;;;;;5054766;28;20032;-44
2021/09/12 13:17:46;;;;;;;9.25;2.97;;;;;;;;;;5054651;28;20078;-44
2021/09/12 13:20:13;;;;;;;6.38;2.55;;;;;;;;;;5054848;28;20052;-44
2021/09/12 13:22:39;;;;;;;5.85;2.25;;;;;;;;;;5054605;28;20037;-45
2021/09/12 13:25:05;;;;;;;3.65;2.58;;;;;;;;;;5054643;28;20029;-44
2021/09/12 13:27:31;;;;;;;5.35;2.63;;;;;;;;;;5054740;28;20024;-44
2021/09/12 13:29:57;;;;;;;6.18;2.42;;;;;;;;;;5054690;28;20039;-44
2021/09/12 13:32:23;;;;;;;3.85;2.38;;;;;;;;;;5054745;28;20461;-43
2021/09/12 13:34:49;;;;;;;9.38;2.67;;;;;;;;;;5054521;28;20087;-43
2021/09/12 13:37:15;;;;;;;6.28;2.50;;;;;;;;;;5054343;28;20032;-44
2021/09/12 13:39:41;;;;;;;7.30;2.38;;;;;;;;;;5054409;28;20443;-44
2021/09/12 13:42:08;;;;;;;5.28;2.65;;;;;;;;;;5054156;28;20079;-44
2021/09/12 13:44:34;;;;;;;8.15;2.95;;;;;;;;;;5054414;28;20032;-44
2021/09/12 13:47:00;;;;;;;8.52;2.20;;;;;;;;;;5054074;28;20048;-44
2021/09/12 13:49:26;;;;;;;9.23;2.50;;;;;;;;;;5054178;28;20036;-44
2021/09/12 13:51:52;;;;;;;5.18;2.20;;;;;;;;;;5054059;28;20033;-44
2021/09/12 13:54:18;;;;;;;6.88;2.60;;;;;;;;;;5054347;28;20116;-44
2021/09/12 13:56:44;;;;;;;9.05;2.33;;;;;;;;;;5053910;28;20020;-44
2021/09/12 13:59:10;;;;;;;11.30;5.57;;;;;;;;;;5053980;28;20048;-44
2021/09/12 14:01:36;;;;;;;8.02;3.20;;;;;;;;;;5054151;28;20036;-44
2021/09/12 14:04:02;;;;;;;6.35;3.20;;;;;;;;;;5053797;28;20472;-44
2021/09/12 14:06:28;;;;;;;7.28;2.70;;;;;;;;;;5053973;28;20051;-44
2021/09/12 14:08:54;;;;;;;8.13;2.80;;;;;;;;;;5053791;28;20033;-44
2021/09/12 14:11:20;;;;;;;9.35;2.67;;;;;;;;;;5053724;28;20024;-43
2021/09/12 14:13:46;;;;;;;5.07;2.78;;;;;;;;;;5053614;28;20032;-43
2021/09/12 14:16:13;;;;;;;4.65;2.10;;;;;;;;;;5053947;28;20120;-44
2021/09/12 14:18:39;;;;;;;5.85;2.50;;;;;;;;;;5053812;28;20104;-44
2021/09/12 14:21:05;;;;;;;6.38;2.45;;;;;;;;;;5053648;28;20017;-46
2021/09/12 14:23:33;;;;;;;6.40;2.67;;;;;;;;;;5052682;28;20048;-44
2021/09/12 14:25:59;;;;;;;4.82;2.72;;;;;;;;;;5053502;28;20024;-44
2021/09/12 14:28:28;;;;;;;5.05;2.58;;;;;;;;;;5053459;28;20060;-44
2021/09/12 14:30:54;;;;;;;5.65;2.55;;;;;;;;;;5053497;28;20504;-44
2021/09/12 14:33:20;;;;;;;4.78;2.47;;;;;;;;;;5053507;28;20036;-44